Time;durP1;ratioP1;P1;durP2;ratioP2;P2;SDS_P1;SDS_P2;PMS_P1;PMS_P2;Temp;Humidity;BMP_temperature;BMP_pressure;BME280_temperature;BME280_humidity;BME280_pressure;Samples;Min_cycle;Max_cycle;Signal;HPM_P1;HPM_P2
2023/07/13 00:01:49;;;;;;;6.83;3.27;;;15.80;1.00;;;;;;5019008;28;20939;-76
2023/07/13 00:04:20;;;;;;;8.40;3.40;;;15.80;1.00;;;;;;5017017;28;20512;-74
2023/07/13 00:06:47;;;;;;;4.00;3.55;;;15.80;1.00;;;;;;5030842;28;20442;-70
2023/07/13 00:09:17;;;;;;;2.93;2.73;;;15.70;1.00;;;;;;5034178;28;20584;-75
2023/07/13 00:11:43;;;;;;;3.80;3.10;;;15.70;1.00;;;;;;5036597;28;20431;-70
2023/07/13 00:14:11;;;;;;;7.63;4.13;;;15.70;1.00;;;;;;5032742;28;21057;-70
2023/07/13 00:16:38;;;;;;;6.23;4.27;;;15.60;1.00;;;;;;5030457;28;20704;-75
2023/07/13 00:19:04;;;;;;;7.90;3.97;;;15.60;1.00;;;;;;5034403;28;20764;-66
2023/07/13 00:21:30;;;;;;;5.43;3.60;;;15.60;1.00;;;;;;5024487;28;20415;-70
2023/07/13 00:23:56;;;;;;;4.53;3.47;;;15.50;1.00;;;;;;5033950;28;20513;-66
2023/07/13 00:26:22;;;;;;;4.90;4.20;;;15.50;1.00;;;;;;5031518;28;20200;-75
2023/07/13 00:28:48;;;;;;;6.60;3.87;;;15.40;1.00;;;;;;5030652;28;20469;-71
2023/07/13 00:31:17;;;;;;;4.00;3.60;;;15.50;1.00;;;;;;5030176;28;20533;-76
2023/07/13 00:33:43;;;;;;;6.40;3.70;;;15.40;1.00;;;;;;5019389;28;20665;-65
2023/07/13 00:36:10;;;;;;;7.83;3.90;;;15.40;1.00;;;;;;5026466;28;20798;-75
2023/07/13 00:38:36;;;;;;;4.03;3.63;;;15.40;1.00;;;;;;5036188;28;20398;-66
2023/07/13 00:41:03;;;;;;;6.43;3.80;;;15.40;1.00;;;;;;5023743;28;20431;-67
2023/07/13 00:43:30;;;;;;;6.03;3.53;;;15.40;1.00;;;;;;5029599;28;20630;-76
2023/07/13 00:45:56;;;;;;;4.93;3.40;;;15.50;1.00;;;;;;5032597;28;20434;-72
2023/07/13 00:48:25;;;;;;;4.17;3.37;;;15.50;1.00;;;;;;5034218;28;20531;-69
2023/07/13 00:50:54;;;;;;;4.00;3.67;;;15.50;1.00;;;;;;5029732;28;20246;-65
2023/07/13 00:53:21;;;;;;;8.97;3.70;;;15.50;1.00;;;;;;5015933;28;20403;-66
2023/07/13 00:55:49;;;;;;;8.40;3.20;;;15.60;1.00;;;;;;5019495;28;21061;-69
2023/07/13 00:58:15;;;;;;;6.63;3.30;;;15.60;1.00;;;;;;5019018;28;20469;-66
2023/07/13 01:00:41;;;;;;;3.57;3.17;;;15.60;1.00;;;;;;5033244;28;20450;-73
2023/07/13 01:03:07;;;;;;;8.70;3.63;;;15.60;1.00;;;;;;5035088;28;20432;-65
2023/07/13 01:05:34;;;;;;;5.20;4.13;;;15.60;1.00;;;;;;5033048;28;20674;-66
2023/07/13 01:08:01;;;;;;;4.57;2.63;;;15.60;1.00;;;;;;5019013;28;20494;-75
2023/07/13 01:10:28;;;;;;;7.70;3.80;;;15.70;1.00;;;;;;5032070;28;20458;-72
2023/07/13 01:12:54;;;;;;;8.00;3.90;;;15.60;1.00;;;;;;5035253;28;20468;-70
2023/07/13 01:15:45;;;;;;;7.70;3.83;;;15.70;1.00;;;;;;5020762;28;21320;-74
2023/07/13 01:18:15;;;;;;;3.40;3.20;;;15.60;1.00;;;;;;5016740;28;20490;-68
2023/07/13 01:20:41;;;;;;;4.70;3.73;;;15.60;1.00;;;;;;5021379;28;20790;-72
2023/07/13 01:23:12;;;;;;;4.97;4.07;;;15.60;1.00;;;;;;5035055;28;20414;-70
2023/07/13 01:25:39;;;;;;;8.10;4.17;;;15.50;1.00;;;;;;5020713;28;20500;-75
2023/07/13 01:28:08;;;;;;;7.73;3.50;;;15.50;1.00;;;;;;5021647;28;20450;-65
2023/07/13 01:30:35;;;;;;;6.23;4.97;;;15.40;1.00;;;;;;5031697;28;20430;-66
2023/07/13 01:33:01;;;;;;;9.33;4.27;;;15.40;1.00;;;;;;5031785;28;20460;-68
2023/07/13 01:35:27;;;;;;;7.73;4.43;;;15.40;1.00;;;;;;5027076;28;20430;-68
2023/07/13 01:37:53;;;;;;;10.37;4.10;;;15.40;1.00;;;;;;5031283;28;20505;-66
2023/07/13 01:40:20;;;;;;;6.23;3.40;;;15.40;1.00;;;;;;5018805;28;20184;-66
2023/07/13 01:42:46;;;;;;;5.10;3.73;;;15.30;1.00;;;;;;5019010;28;20427;-69
2023/07/13 01:45:11;;;;;;;5.17;4.67;;;15.30;1.00;;;;;;5031227;28;20422;-74
2023/07/13 01:47:37;;;;;;;6.87;3.97;;;15.30;1.00;;;;;;5031789;28;20192;-67
2023/07/13 01:50:03;;;;;;;6.17;4.00;;;15.20;1.00;;;;;;5018689;28;20291;-74
2023/07/13 01:52:29;;;;;;;9.93;4.10;;;15.30;1.00;;;;;;5032084;28;20434;-76
2023/07/13 01:54:55;;;;;;;10.40;3.80;;;15.30;1.00;;;;;;5032480;28;20202;-74
2023/07/13 01:57:20;;;;;;;4.80;3.83;;;15.30;1.00;;;;;;5033977;28;20544;-66
2023/07/13 01:59:46;;;;;;;4.27;3.87;;;15.30;1.00;;;;;;5019811;28;20215;-69
2023/07/13 02:02:12;;;;;;;11.07;3.90;;;15.30;1.00;;;;;;5020579;28;20641;-70
2023/07/13 02:04:37;;;;;;;4.40;4.10;;;15.30;1.00;;;;;;5013962;28;20645;-65
2023/07/13 02:07:03;;;;;;;5.07;3.50;;;15.30;1.00;;;;;;5015212;28;20208;-75
2023/07/13 02:09:29;;;;;;;4.03;3.57;;;15.30;1.00;;;;;;5026001;28;20294;-70
2023/07/13 02:11:54;;;;;;;12.43;4.10;;;15.30;1.00;;;;;;5035496;28;20409;-75
2023/07/13 02:14:20;;;;;;;3.07;2.77;;;15.30;1.00;;;;;;5033261;28;20190;-70
2023/07/13 02:16:48;;;;;;;9.50;4.67;;;15.30;1.00;;;;;;5018067;28;20192;-66
2023/07/13 02:19:14;;;;;;;5.00;2.97;;;15.30;1.00;;;;;;5017601;28;20180;-66
2023/07/13 02:21:39;;;;;;;3.23;2.90;;;15.30;1.00;;;;;;5014638;28;20473;-65
2023/07/13 02:24:05;;;;;;;4.50;3.30;;;15.30;1.00;;;;;;5021089;28;20194;-74
2023/07/13 02:26:31;;;;;;;5.57;3.50;;;15.30;1.00;;;;;;5013512;28;20192;-66
2023/07/13 02:28:56;;;;;;;3.67;3.30;;;15.20;1.00;;;;;;5021468;28;20594;-75
2023/07/13 02:31:22;;;;;;;4.30;3.83;;;15.20;1.00;;;;;;5021808;28;20226;-66
2023/07/13 02:33:48;;;;;;;6.13;4.37;;;15.20;1.00;;;;;;5016542;28;20180;-74
2023/07/13 02:36:16;;;;;;;4.43;4.00;;;15.20;1.00;;;;;;5019041;28;20541;-75
2023/07/13 02:38:41;;;;;;;4.20;3.23;;;15.20;1.00;;;;;;5032934;28;20172;-74
2023/07/13 02:41:08;;;;;;;13.47;3.63;;;15.10;1.00;;;;;;5027831;28;20848;-70
2023/07/13 02:43:34;;;;;;;4.67;3.30;;;15.10;1.00;;;;;;5023160;28;20233;-75
2023/07/13 02:46:06;;;;;;;4.13;3.77;;;15.10;1.00;;;;;;5030592;28;20457;-66
2023/07/13 02:48:36;;;;;;;4.73;3.43;;;15.10;1.00;;;;;;5030120;28;20200;-68
2023/07/13 02:51:02;;;;;;;11.00;3.50;;;15.10;1.00;;;;;;5025471;28;20430;-67
2023/07/13 02:53:28;;;;;;;5.37;4.30;;;15.00;1.00;;;;;;5032311;28;20437;-66
2023/07/13 02:55:53;;;;;;;4.80;3.83;;;15.00;1.00;;;;;;5029644;28;20406;-68
2023/07/13 02:58:19;;;;;;;5.33;4.83;;;15.00;1.00;;;;;;5024584;28;20208;-75
2023/07/13 03:00:46;;;;;;;15.17;4.27;;;15.00;1.00;;;;;;5020809;28;20233;-69
2023/07/13 03:03:13;;;;;;;3.13;2.90;;;15.00;1.00;;;;;;5033154;28;20207;-69
2023/07/13 03:05:42;;;;;;;3.87;3.57;;;15.00;1.00;;;;;;5030500;28;20762;-66
2023/07/13 03:08:08;;;;;;;6.83;3.90;;;15.00;1.00;;;;;;5027000;28;20480;-74
2023/07/13 03:10:34;;;;;;;6.87;4.30;;;15.00;1.00;;;;;;5031481;28;20434;-66
2023/07/13 03:13:00;;;;;;;5.43;4.37;;;15.00;1.00;;;;;;5030338;28;20442;-75
2023/07/13 03:15:26;;;;;;;9.10;6.00;;;15.00;1.00;;;;;;5028728;28;20647;-65
2023/07/13 03:17:52;;;;;;;8.70;4.13;;;15.00;1.00;;;;;;5032582;28;20689;-71
2023/07/13 03:20:18;;;;;;;5.27;4.73;;;15.00;1.00;;;;;;5033772;28;20445;-74
2023/07/13 03:22:44;;;;;;;8.60;4.87;;;15.00;1.00;;;;;;5027299;28;20466;-74
2023/07/13 03:25:10;;;;;;;6.03;4.83;;;15.10;1.00;;;;;;5025323;28;20199;-73
2023/07/13 03:27:37;;;;;;;8.30;4.33;;;15.10;1.00;;;;;;5032815;28;20196;-65
2023/07/13 03:30:06;;;;;;;8.03;4.93;;;15.10;1.00;;;;;;5030639;28;20469;-74
2023/07/13 03:32:32;;;;;;;6.77;5.00;;;15.10;1.00;;;;;;5035849;28;20425;-67
2023/07/13 03:34:58;;;;;;;6.33;4.50;;;15.20;1.00;;;;;;5029223;28;20410;-66
2023/07/13 03:37:24;;;;;;;5.10;4.50;;;15.20;1.00;;;;;;5025891;28;20441;-76
2023/07/13 03:39:50;;;;;;;10.33;4.70;;;15.10;1.00;;;;;;5028368;28;20188;-75
2023/07/13 03:42:15;;;;;;;6.40;5.80;;;15.10;1.50;;;;;;5018062;28;20176;-71
2023/07/13 03:44:42;;;;;;;10.13;5.53;;;15.20;10.30;;;;;;5028045;28;20183;-71
2023/07/13 03:47:08;;;;;;;6.27;5.33;;;15.20;18.00;;;;;;5021775;28;20557;-68
2023/07/13 03:49:34;;;;;;;10.00;5.27;;;15.20;25.10;;;;;;5017635;28;20462;-65
2023/07/13 03:52:00;;;;;;;7.50;5.80;;;15.20;30.00;;;;;;5031116;28;20429;-67
2023/07/13 03:54:26;;;;;;;7.13;4.20;;;15.20;39.70;;;;;;5028495;28;20434;-75
2023/07/13 03:56:52;;;;;;;6.50;5.43;;;15.20;51.20;;;;;;5028487;28;20841;-65
2023/07/13 03:59:18;;;;;;;6.00;5.50;;;15.30;62.50;;;;;;5018923;28;20536;-69
2023/07/13 04:01:44;;;;;;;7.10;5.30;;;15.30;73.10;;;;;;5026909;28;20419;-66
2023/07/13 04:04:10;;;;;;;9.40;5.30;;;15.30;87.60;;;;;;5037057;28;20176;-67
2023/07/13 04:06:37;;;;;;;7.60;6.83;;;15.30;95.10;;;;;;5029563;28;20437;-65
2023/07/13 04:09:05;;;;;;;8.63;5.67;;;15.30;94.00;;;;;;5016416;28;20261;-65
2023/07/13 04:11:32;;;;;;;9.30;6.50;;;15.40;94.10;;;;;;5025797;28;20782;-70
2023/07/13 04:13:59;;;;;;;11.20;9.00;;;15.40;94.10;;;;;;5036596;28;20810;-69
2023/07/13 04:16:25;;;;;;;7.53;6.47;;;15.40;94.30;;;;;;5033259;28;20540;-75
2023/07/13 04:18:54;;;;;;;10.00;6.23;;;15.40;94.00;;;;;;5017204;28;20990;-76
2023/07/13 04:21:21;;;;;;;10.47;5.87;;;15.50;99.80;;;;;;5016382;28;20943;-74
2023/07/13 04:23:47;;;;;;;7.70;6.20;;;15.50;98.50;;;;;;5017080;28;20473;-70
2023/07/13 04:26:12;;;;;;;6.20;5.60;;;15.50;99.90;;;;;;5033388;28;20658;-69
2023/07/13 04:28:38;;;;;;;7.07;6.07;;;15.50;99.90;;;;;;5033870;28;20461;-75
2023/07/13 04:31:04;;;;;;;8.10;4.90;;;15.60;99.90;;;;;;5032286;28;20648;-69
2023/07/13 04:33:30;;;;;;;7.47;6.10;;;15.70;99.90;;;;;;5035772;28;20176;-66
2023/07/13 04:35:57;;;;;;;10.80;5.30;;;15.70;99.90;;;;;;5025978;28;20179;-75
2023/07/13 04:38:24;;;;;;;7.13;5.73;;;15.70;98.30;;;;;;5036363;28;20406;-70
2023/07/13 04:40:51;;;;;;;8.63;5.00;;;15.70;94.20;;;;;;5022944;28;20443;-75
2023/07/13 04:43:17;;;;;;;9.70;6.03;;;15.80;94.20;;;;;;5031428;28;20468;-68
2023/07/13 04:45:43;;;;;;;8.83;6.77;;;15.80;94.20;;;;;;5029419;28;20551;-74
2023/07/13 04:48:09;;;;;;;8.73;5.73;;;15.80;94.20;;;;;;5035642;28;20863;-70
2023/07/13 04:50:37;;;;;;;6.10;5.57;;;15.80;94.20;;;;;;5030479;28;20210;-70
2023/07/13 04:53:03;;;;;;;10.10;4.90;;;15.80;94.10;;;;;;5017728;28;20176;-66
2023/07/13 04:55:30;;;;;;;6.50;4.80;;;15.90;94.00;;;;;;5023611;28;20651;-76
2023/07/13 04:57:58;;;;;;;7.10;5.93;;;15.90;84.70;;;;;;5030238;28;20454;-67
2023/07/13 05:00:25;;;;;;;9.27;5.30;;;16.00;84.10;;;;;;5030689;28;20458;-73
2023/07/13 05:02:51;;;;;;;7.43;5.87;;;16.10;82.10;;;;;;5018793;28;20438;-70
2023/07/13 05:05:17;;;;;;;6.77;5.47;;;16.20;68.10;;;;;;5025568;28;20404;-70
2023/07/13 05:07:43;;;;;;;10.13;5.23;;;16.20;47.50;;;;;;5026791;28;20823;-65
2023/07/13 05:10:09;;;;;;;7.30;6.43;;;16.40;47.40;;;;;;5024072;28;20454;-74
2023/07/13 05:12:34;;;;;;;5.70;5.03;;;16.50;32.00;;;;;;5034053;28;20188;-76
2023/07/13 05:15:01;;;;;;;6.53;4.77;;;16.60;3.80;;;;;;5023262;28;20423;-72
2023/07/13 05:17:26;;;;;;;11.83;6.60;;;16.60;1.00;;;;;;5019702;28;20250;-74
2023/07/13 05:19:52;;;;;;;8.73;5.37;;;16.60;1.00;;;;;;5024234;28;20923;-69
2023/07/13 05:22:18;;;;;;;8.47;4.93;;;16.80;1.00;;;;;;5035720;28;20187;-76
2023/07/13 05:24:43;;;;;;;5.47;4.93;;;16.80;1.00;;;;;;5033636;28;20187;-76
2023/07/13 05:27:09;;;;;;;8.80;4.83;;;16.80;1.00;;;;;;5019383;28;20208;-67
2023/07/13 05:29:35;;;;;;;6.37;4.70;;;17.00;1.00;;;;;;5030578;28;20206;-77
2023/07/13 05:32:00;;;;;;;8.63;4.83;;;17.00;1.00;;;;;;5028413;28;20183;-72
2023/07/13 05:34:26;;;;;;;6.70;4.83;;;17.10;1.00;;;;;;5017600;28;20629;-67
2023/07/13 05:36:52;;;;;;;8.70;5.07;;;17.20;1.00;;;;;;5027789;28;20660;-73
2023/07/13 05:39:18;;;;;;;5.57;4.80;;;17.20;1.00;;;;;;5025484;28;20179;-76
2023/07/13 05:41:44;;;;;;;6.60;4.50;;;17.10;1.00;;;;;;5021729;28;20781;-69
2023/07/13 05:44:10;;;;;;;21.13;5.60;;;17.20;1.00;;;;;;5015185;28;20454;-62
2023/07/13 05:46:36;;;;;;;11.43;3.93;;;17.10;1.00;;;;;;5024146;28;20226;-69
2023/07/13 05:49:02;;;;;;;6.50;4.87;;;17.20;1.00;;;;;;5030846;28;20204;-68
2023/07/13 05:51:29;;;;;;;5.77;5.20;;;17.10;1.00;;;;;;5015312;28;20172;-64
2023/07/13 05:53:54;;;;;;;14.83;4.67;;;17.20;1.00;;;;;;5024777;28;20434;-66
2023/07/13 05:56:20;;;;;;;4.90;4.40;;;17.20;1.00;;;;;;5021679;28;20474;-74
2023/07/13 05:58:47;;;;;;;11.93;4.70;;;17.20;1.00;;;;;;5014704;28;20250;-66
2023/07/13 06:01:14;;;;;;;9.53;5.00;;;17.30;1.00;;;;;;5022670;28;20184;-72
2023/07/13 06:03:40;;;;;;;8.53;5.00;;;17.30;1.00;;;;;;5031931;28;20430;-66
2023/07/13 06:06:07;;;;;;;13.80;5.67;;;17.20;1.00;;;;;;5032510;28;20540;-66
2023/07/13 06:08:33;;;;;;;8.33;5.20;;;17.20;1.00;;;;;;5027653;28;20196;-72
2023/07/13 06:11:07;;;;;;;8.10;4.63;;;17.20;1.00;;;;;;5017318;28;20484;-69
2023/07/13 06:13:33;;;;;;;11.50;4.70;;;17.20;1.00;;;;;;5027955;28;20438;-72
2023/07/13 06:16:00;;;;;;;7.10;4.30;;;17.20;1.00;;;;;;5018350;28;20474;-66
2023/07/13 06:18:25;;;;;;;5.90;4.43;;;17.30;1.00;;;;;;5033813;28;20429;-65
2023/07/13 06:20:51;;;;;;;7.90;5.33;;;17.40;1.00;;;;;;5032856;28;20434;-76
2023/07/13 06:23:17;;;;;;;12.60;5.47;;;17.40;1.00;;;;;;5030603;28;20539;-73
2023/07/13 06:25:43;;;;;;;11.33;4.90;;;17.40;1.00;;;;;;5020215;28;20187;-67
2023/07/13 06:28:09;;;;;;;8.73;5.10;;;17.40;1.00;;;;;;5026805;28;20648;-75
2023/07/13 06:30:34;;;;;;;5.63;4.37;;;17.40;1.00;;;;;;5031242;28;20492;-76
2023/07/13 06:33:00;;;;;;;11.33;5.53;;;17.40;1.00;;;;;;5027363;28;20307;-66
2023/07/13 06:35:26;;;;;;;9.60;5.00;;;17.30;1.00;;;;;;5025066;28;20187;-75
2023/07/13 06:37:51;;;;;;;7.63;5.60;;;17.40;1.00;;;;;;5015804;28;20223;-69
2023/07/13 06:40:17;;;;;;;6.87;4.13;;;17.40;1.00;;;;;;5027544;28;20180;-68
2023/07/13 06:42:43;;;;;;;17.27;5.27;;;17.40;1.00;;;;;;5013799;28;20184;-69
2023/07/13 06:45:09;;;;;;;9.10;4.17;;;17.40;1.00;;;;;;5021352;28;20420;-76
2023/07/13 06:47:35;;;;;;;19.00;5.30;;;17.40;1.00;;;;;;5020131;28;20200;-74
2023/07/13 06:50:01;;;;;;;6.03;5.10;;;17.40;1.00;;;;;;5027977;28;20465;-70
2023/07/13 06:52:26;;;;;;;6.30;4.00;;;17.40;1.00;;;;;;5033794;28;20172;-77
2023/07/13 06:54:52;;;;;;;14.03;5.23;;;17.40;1.00;;;;;;5033547;28;20405;-66
2023/07/13 06:57:18;;;;;;;9.30;4.70;;;17.40;1.00;;;;;;5031623;28;20214;-69
2023/07/13 06:59:43;;;;;;;10.20;4.47;;;17.40;1.00;;;;;;5032721;28;20254;-69
2023/07/13 07:02:11;;;;;;;9.00;4.53;;;17.50;1.00;;;;;;5024240;28;20330;-77
2023/07/13 07:04:37;;;;;;;11.20;4.67;;;17.60;1.00;;;;;;5022379;28;20180;-75
2023/07/13 07:07:03;;;;;;;12.23;4.73;;;17.80;1.00;;;;;;5032903;28;20464;-66
2023/07/13 07:09:31;;;;;;;8.83;4.80;;;17.80;1.00;;;;;;5037340;28;20652;-71
2023/07/13 07:11:57;;;;;;;6.57;4.17;;;17.90;1.00;;;;;;5036219;28;20424;-76
2023/07/13 07:14:22;;;;;;;9.93;5.07;;;18.00;1.00;;;;;;5029563;28;20798;-76
2023/07/13 07:16:49;;;;;;;5.73;4.23;;;18.10;1.00;;;;;;5023745;28;20199;-75
2023/07/13 07:19:16;;;;;;;8.20;4.03;;;18.10;1.00;;;;;;5031332;28;20207;-76
2023/07/13 07:21:41;;;;;;;8.60;3.80;;;18.20;1.00;;;;;;5036508;28;20410;-67
2023/07/13 07:24:07;;;;;;;7.60;4.07;;;18.40;1.00;;;;;;5020418;28;20419;-66
2023/07/13 07:26:33;;;;;;;10.43;3.37;;;18.40;1.00;;;;;;5016782;28;20580;-68
2023/07/13 07:28:59;;;;;;;6.27;3.93;;;18.50;1.00;;;;;;5017360;28;20191;-66
2023/07/13 07:31:25;;;;;;;3.97;3.67;;;18.50;1.00;;;;;;5026749;28;20926;-75
2023/07/13 07:33:50;;;;;;;8.90;4.27;;;18.60;1.00;;;;;;5027341;28;20198;-76
2023/07/13 07:36:16;;;;;;;8.73;3.70;;;18.60;1.00;;;;;;5028955;28;20266;-68
2023/07/13 07:38:43;;;;;;;8.27;3.97;;;18.80;1.00;;;;;;5033616;28;20644;-72
2023/07/13 07:41:09;;;;;;;6.17;4.23;;;19.00;1.00;;;;;;5020767;28;20477;-76
2023/07/13 07:43:35;;;;;;;6.17;3.37;;;19.10;1.00;;;;;;5017705;28;20399;-67
2023/07/13 07:46:02;;;;;;;6.97;3.93;;;19.20;1.00;;;;;;5021351;28;20430;-70
2023/07/13 07:48:27;;;;;;;6.70;3.53;;;19.20;1.00;;;;;;5036825;28;20938;-76
2023/07/13 07:50:53;;;;;;;5.93;2.80;;;19.10;1.00;;;;;;5022518;28;20581;-66
2023/07/13 07:53:19;;;;;;;5.43;3.13;;;19.30;1.00;;;;;;5030089;28;20192;-72
2023/07/13 07:55:45;;;;;;;8.60;3.97;;;19.40;1.00;;;;;;5035633;28;20648;-76
2023/07/13 07:58:11;;;;;;;5.90;3.80;;;19.50;1.00;;;;;;5025768;28;20712;-70
2023/07/13 08:00:36;;;;;;;4.80;3.40;;;19.50;1.00;;;;;;5023209;28;20522;-66
2023/07/13 08:03:02;;;;;;;5.87;2.40;;;19.40;1.00;;;;;;5022876;28;20283;-75
2023/07/13 08:05:28;;;;;;;4.20;3.00;;;19.30;1.00;;;;;;5029486;28;21376;-75
2023/07/13 08:07:55;;;;;;;5.53;3.00;;;19.40;1.00;;;;;;5035483;28;20262;-74
2023/07/13 08:10:21;;;;;;;4.63;3.03;;;19.50;1.00;;;;;;5027415;28;20468;-76
2023/07/13 08:12:47;;;;;;;4.30;3.13;;;19.40;1.00;;;;;;5035374;28;20752;-72
2023/07/13 08:15:15;;;;;;;4.30;2.63;;;19.30;1.00;;;;;;5022875;28;20680;-66
2023/07/13 08:17:41;;;;;;;12.63;3.80;;;19.40;1.00;;;;;;5032892;28;20254;-67
2023/07/13 08:20:09;;;;;;;8.73;2.50;;;19.60;1.00;;;;;;5016115;28;20446;-67
2023/07/13 08:22:35;;;;;;;4.53;2.60;;;19.80;1.00;;;;;;5019946;28;20435;-67
2023/07/13 08:25:01;;;;;;;3.00;2.27;;;19.90;1.00;;;;;;5026636;28;20437;-70
2023/07/13 08:27:28;;;;;;;3.00;2.20;;;20.10;1.00;;;;;;5032168;28;20449;-66
2023/07/13 08:29:54;;;;;;;5.60;3.40;;;20.20;99.90;;;;;;5034069;28;20950;-66
2023/07/13 08:32:22;;;;;;;2.60;2.20;;;20.30;99.90;;;;;;5032525;28;20440;-74
2023/07/13 08:34:48;;;;;;;2.77;2.50;;;20.30;99.90;;;;;;5025300;28;20207;-67
2023/07/13 08:37:14;;;;;;;3.80;2.73;;;20.50;99.90;;;;;;5035251;28;20415;-67
2023/07/13 08:39:40;;;;;;;3.67;2.30;;;20.60;99.90;;;;;;5027326;28;20474;-76
2023/07/13 08:42:19;;;;;;;4.67;2.33;;;20.60;99.90;;;;;;5027067;28;20469;-76
2023/07/13 08:45:02;;;;;;;7.80;2.23;;;20.60;99.90;;;;;;5020230;28;20226;-66
2023/07/13 08:47:30;;;;;;;4.67;3.10;;;20.70;99.90;;;;;;5028838;28;20486;-66
2023/07/13 08:49:56;;;;;;;3.17;2.27;;;20.70;99.90;;;;;;5021391;28;20454;-71
2023/07/13 08:52:34;;;;;;;4.03;2.47;;;20.90;99.90;;;;;;5035949;28;20406;-76
2023/07/13 08:55:25;;;;;;;2.93;2.40;;;21.10;99.90;;;;;;5022107;28;20439;-70
2023/07/13 08:58:28;;;;;;;3.40;2.07;;;21.20;99.90;;;;;;5020336;28;20431;-75
2023/07/13 09:01:16;;;;;;;5.07;2.67;;;21.10;99.90;;;;;;5024243;28;20429;-72
2023/07/13 09:04:01;;;;;;;4.20;2.60;;;20.70;99.90;;;;;;5032735;28;20437;-76
2023/07/13 09:06:54;;;;;;;5.63;2.57;;;20.50;99.90;;;;;;5027271;28;20529;-68
2023/07/13 09:09:47;;;;;;;7.43;2.37;;;20.20;99.90;;;;;;5034399;28;20457;-64
2023/07/13 09:12:13;;;;;;;3.63;2.07;;;19.70;99.90;;;;;;5028930;28;20422;-70
2023/07/13 09:14:42;;;;;;;4.13;2.60;;;19.10;1.00;;;;;;5018316;28;20427;-66
2023/07/13 09:17:23;;;;;;;3.50;2.40;;;18.70;1.00;;;;;;5022559;28;20512;-63
2023/07/13 09:19:56;;;;;;;3.70;2.70;;;18.50;1.00;;;;;;5018655;28;20465;-69
2023/07/13 09:22:25;;;;;;;3.13;2.67;;;18.20;1.00;;;;;;5033942;28;20433;-64
2023/07/13 09:24:57;;;;;;;4.13;2.77;;;18.10;1.00;;;;;;5033890;28;20430;-64
2023/07/13 09:27:28;;;;;;;3.83;2.80;;;18.10;1.00;;;;;;5031618;28;20458;-64
2023/07/13 09:30:15;;;;;;;6.67;3.30;;;18.20;1.00;;;;;;5034216;28;20445;-68
2023/07/13 09:32:50;;;;;;;3.03;2.70;;;18.20;1.00;;;;;;5013757;28;20419;-64
2023/07/13 09:35:20;;;;;;;5.50;3.10;;;18.20;1.00;;;;;;5015120;28;20593;-69
2023/07/13 09:37:46;;;;;;;5.07;3.40;;;18.20;1.00;;;;;;5031943;28;20430;-68
2023/07/13 09:40:25;;;;;;;7.93;4.27;;;18.20;1.00;;;;;;5034153;28;20788;-69
2023/07/13 09:42:53;;;;;;;3.90;3.00;;;18.50;1.00;;;;;;5023122;28;20516;-63
2023/07/13 09:45:31;;;;;;;7.27;4.33;;;18.70;1.00;;;;;;5013908;28;20494;-72
2023/07/13 09:48:16;;;;;;;4.07;3.50;;;19.00;1.00;;;;;;5014939;28;20962;-66
2023/07/13 09:50:43;;;;;;;4.73;3.20;;;19.40;1.00;;;;;;5024826;28;20504;-72
2023/07/13 09:53:16;;;;;;;3.87;3.40;;;19.80;1.00;;;;;;5033345;28;20427;-68
2023/07/13 09:55:45;;;;;;;6.33;3.57;;;20.30;1.00;;;;;;5021793;28;20451;-72
2023/07/13 09:58:15;;;;;;;5.00;2.90;;;20.90;1.00;;;;;;5015084;28;20923;-73
2023/07/13 10:00:43;;;;;;;3.90;2.97;;;21.30;1.00;;;;;;5017704;28;20524;-68
2023/07/13 10:03:21;;;;;;;4.70;3.30;;;21.30;1.00;;;;;;5034605;28;20482;-66
2023/07/13 10:05:52;;;;;;;4.27;3.87;;;21.70;1.00;;;;;;5026208;28;20423;-72
2023/07/13 10:08:23;;;;;;;4.00;2.53;;;21.70;1.00;;;;;;5014743;28;20423;-65
2023/07/13 10:10:57;;;;;;;3.53;2.37;;;21.30;1.00;;;;;;5026024;28;20423;-73
2023/07/13 10:13:27;;;;;;;4.50;2.50;;;21.00;1.00;;;;;;5019770;28;20477;-66
2023/07/13 10:15:53;;;;;;;6.83;3.00;;;20.50;1.00;;;;;;5016609;28;20426;-71
2023/07/13 10:18:20;;;;;;;8.47;2.77;;;20.00;1.00;;;;;;5033798;28;20433;-66
2023/07/13 10:20:46;;;;;;;4.57;2.90;;;19.30;1.00;;;;;;5034083;28;20851;-72
2023/07/13 10:23:21;;;;;;;6.10;2.53;;;19.00;1.00;;;;;;5015080;28;20439;-73
2023/07/13 10:25:48;;;;;;;10.20;2.80;;;18.70;1.00;;;;;;5017706;28;20639;-68
2023/07/13 10:28:37;;;;;;;9.50;4.23;;;18.50;1.00;;;;;;5031997;28;20866;-74
2023/07/13 10:31:10;;;;;;;7.07;3.20;;;18.40;1.00;;;;;;5031462;28;20469;-71
2023/07/13 10:33:36;;;;;;;4.70;2.70;;;18.30;1.00;;;;;;5033632;28;20485;-66
2023/07/13 10:36:12;;;;;;;3.83;3.13;;;18.40;1.00;;;;;;5032272;28;20489;-70
2023/07/13 10:38:38;;;;;;;3.10;1.93;;;19.10;1.00;;;;;;5029790;28;20191;-66
2023/07/13 10:41:10;;;;;;;1.90;1.80;;;20.00;1.00;;;;;;5024422;28;20426;-73
2023/07/13 10:43:44;;;;;;;1.60;1.50;;;20.80;1.00;;;;;;5031706;28;20946;-66
2023/07/13 10:46:30;;;;;;;2.77;1.20;;;21.60;99.90;;;;;;5032185;28;20458;-67
2023/07/13 10:49:05;;;;;;;3.20;1.67;;;22.20;99.90;;;;;;5033802;28;20523;-67
2023/07/13 10:51:32;;;;;;;1.63;1.40;;;22.40;99.90;;;;;;5031302;28;20945;-71
2023/07/13 10:54:23;;;;;;;3.20;1.60;;;22.60;99.90;;;;;;5033218;28;20758;-72
2023/07/13 10:56:52;;;;;;;2.73;1.43;;;23.00;99.90;;;;;;5012978;28;20500;-73
2023/07/13 10:59:26;;;;;;;3.57;1.23;;;23.50;99.90;;;;;;5020053;28;20906;-67
2023/07/13 11:01:56;;;;;;;3.10;1.20;;;23.90;99.90;;;;;;5019872;28;20923;-67
2023/07/13 11:04:25;;;;;;;3.10;2.03;;;24.20;99.90;;;;;;5013834;28;20399;-72
2023/07/13 11:07:10;;;;;;;1.43;1.00;;;24.10;99.90;;;;;;5012930;28;20439;-67
2023/07/13 11:09:41;;;;;;;3.60;1.47;;;24.10;99.90;;;;;;5023049;28;20552;-72
2023/07/13 11:12:28;;;;;;;2.33;2.00;;;24.00;99.90;;;;;;5019262;28;20426;-73
2023/07/13 11:14:57;;;;;;;2.30;1.10;;;24.20;99.90;;;;;;5032824;28;20405;-70
2023/07/13 11:17:32;;;;;;;1.30;1.20;;;24.40;99.90;;;;;;5032556;28;20461;-67
2023/07/13 11:20:32;;;;;;;3.53;1.13;;;24.70;99.90;;;;;;5033289;28;20490;-68
2023/07/13 11:23:13;;;;;;;1.20;1.10;;;24.90;99.90;;;;;;5021954;28;20529;-73
2023/07/13 11:25:39;;;;;;;1.20;0.90;;;25.20;99.90;;;;;;5028810;28;20512;-77
2023/07/13 11:28:11;;;;;;;2.10;1.10;;;25.20;99.90;;;;;;5032401;28;20453;-70
2023/07/13 11:30:42;;;;;;;3.70;1.13;;;25.30;99.90;;;;;;5029756;28;21019;-70
2023/07/13 11:33:13;;;;;;;1.50;1.00;;;25.40;99.90;;;;;;5032354;28;20413;-75
2023/07/13 11:36:05;;;;;;;2.23;0.90;;;25.50;99.90;;;;;;5031307;28;20411;-71
2023/07/13 11:38:38;;;;;;;1.93;1.30;;;25.40;99.90;;;;;;5028060;28;20470;-71
2023/07/13 11:41:17;;;;;;;1.10;0.90;;;25.40;99.90;;;;;;5016706;28;20493;-74
2023/07/13 11:43:43;;;;;;;2.30;1.00;;;25.10;99.90;;;;;;5013161;28;20426;-75
2023/07/13 11:46:20;;;;;;;4.77;1.40;;;25.30;99.90;;;;;;5018249;28;20535;-69
2023/07/13 11:48:47;;;;;;;2.20;1.00;;;25.70;99.90;;;;;;5032861;28;20813;-75
2023/07/13 11:51:28;;;;;;;4.20;1.43;;;26.30;99.90;;;;;;5032214;28;20491;-76
2023/07/13 11:53:56;;;;;;;4.63;1.20;;;26.60;99.90;;;;;;5027130;28;20921;-76
2023/07/13 11:56:23;;;;;;;3.93;1.50;;;26.70;99.90;;;;;;5016230;28;20534;-73
2023/07/13 11:58:55;;;;;;;4.17;1.47;;;27.00;99.90;;;;;;5016790;28;20454;-70
2023/07/13 12:01:24;;;;;;;5.10;1.30;;;26.40;99.90;;;;;;5021867;28;20429;-75
2023/07/13 12:03:50;;;;;;;4.67;1.60;;;25.20;99.90;;;;;;5035481;28;20939;-72
2023/07/13 12:06:40;;;;;;;2.80;1.30;;;24.20;99.90;;;;;;5035114;28;20413;-72
2023/07/13 12:09:17;;;;;;;2.93;1.43;;;23.40;99.90;;;;;;5029114;28;20493;-77
2023/07/13 12:11:44;;;;;;;2.37;1.30;;;23.50;99.90;;;;;;5024130;28;20440;-77
2023/07/13 12:14:17;;;;;;;7.90;2.40;;;23.50;99.90;;;;;;5031240;28;20430;-70
2023/07/13 12:16:44;;;;;;;2.10;1.03;;;23.20;99.90;;;;;;5034097;28;20485;-70
2023/07/13 12:19:29;;;;;;;2.50;1.43;;;22.70;99.90;;;;;;5036174;28;20440;-72
2023/07/13 12:21:58;;;;;;;1.30;1.07;;;22.40;99.90;;;;;;5037132;28;20902;-76
2023/07/13 12:24:25;;;;;;;1.60;1.30;;;22.70;99.90;;;;;;5034729;28;20899;-70
2023/07/13 12:27:00;;;;;;;2.37;1.20;;;22.70;99.90;;;;;;5018413;28;20486;-72
2023/07/13 12:29:26;;;;;;;1.20;1.10;;;22.40;99.90;;;;;;5016350;28;20485;-76
2023/07/13 12:31:52;;;;;;;1.57;0.90;;;22.60;99.90;;;;;;5024459;28;20576;-76
2023/07/13 12:34:22;;;;;;;2.23;1.13;;;23.40;99.90;;;;;;5035096;28;20171;-75
2023/07/13 12:36:52;;;;;;;5.83;1.70;;;24.40;99.90;;;;;;5034599;28;20202;-70
2023/07/13 12:39:30;;;;;;;2.37;1.13;;;24.60;99.90;;;;;;5035082;28;20430;-74
2023/07/13 12:42:18;;;;;;;2.30;1.23;;;25.20;99.90;;;;;;5034861;28;20472;-75
2023/07/13 12:44:43;;;;;;;2.40;1.10;;;25.40;99.90;;;;;;5035586;28;20429;-74
2023/07/13 12:47:13;;;;;;;3.20;1.37;;;25.20;99.90;;;;;;5034008;28;20465;-76
2023/07/13 12:49:48;;;;;;;2.90;0.93;;;24.80;99.90;;;;;;5035437;28;20222;-78
2023/07/13 12:52:18;;;;;;;7.80;0.70;;;25.00;99.90;;;;;;5032251;28;20418;-69
2023/07/13 12:54:56;;;;;;;2.43;1.10;;;24.70;99.90;;;;;;5034697;28;20794;-78
2023/07/13 12:57:23;;;;;;;1.40;1.00;;;24.30;99.90;;;;;;5034904;28;20430;-78
2023/07/13 12:59:55;;;;;;;3.13;1.33;;;23.90;99.90;;;;;;5033764;28;20483;-70
2023/07/13 13:02:34;;;;;;;3.90;0.90;;;23.40;99.90;;;;;;5031282;28;20430;-76